Time;durP1;ratioP1;P1;durP2;ratioP2;P2;SDS_P1;SDS_P2;PMS_P1;PMS_P2;Temp;Humidity;BMP_temperature;BMP_pressure;BME280_temperature;BME280_humidity;BME280_pressure;Samples;Min_cycle;Max_cycle;Signal;HPM_P1;HPM_P2
2021/12/08 00:02:10;;;;;;;;;1.00;1.00;;;;;9.22;64.41;99497.72;5048643;28;45359;-81
2021/12/08 00:04:35;;;;;;;;;1.00;1.00;;;;;9.21;64.90;99503.06;5062561;28;45236;-81
2021/12/08 00:07:02;;;;;;;;;2.25;2.00;;;;;9.19;64.91;99483.91;5057278;28;45483;-81
2021/12/08 00:09:45;;;;;;;;;0.50;0.50;;;;;9.17;64.79;99483.13;5051795;28;46088;-81
2021/12/08 00:14:55;;;;;;;;;3.75;1.25;;;;;9.13;64.35;99507.78;5045467;28;45441;-83
2021/12/08 00:17:21;;;;;;;;;2.00;1.00;;;;;9.09;64.75;99505.31;5045884;28;45548;-83
2021/12/08 00:19:46;;;;;;;;;2.50;1.00;;;;;9.06;64.20;99502.00;5055381;28;45465;-83
2021/12/08 00:22:12;;;;;;;;;1.75;1.25;;;;;9.02;64.83;99509.13;5061975;28;45343;-83
2021/12/08 00:24:37;;;;;;;;;3.25;2.50;;;;;8.97;64.70;99498.88;5062034;28;45247;-88
2021/12/08 00:27:04;;;;;;;;;3.00;1.00;;;;;8.94;64.42;99475.41;5051641;28;45189;-87
2021/12/08 00:29:29;;;;;;;;;4.00;2.50;;;;;8.94;64.75;99483.28;5055614;28;45398;-87
2021/12/08 00:31:56;;;;;;;;;2.75;1.75;;;;;8.92;64.50;99482.50;5049986;28;45228;-87
2021/12/08 00:34:22;;;;;;;;;2.50;1.00;;;;;8.92;64.99;99484.25;5059709;28;45226;-87
2021/12/08 00:36:51;;;;;;;;;2.00;1.00;;;;;8.88;64.85;99478.34;5046387;28;45631;-87
2021/12/08 00:39:17;;;;;;;;;0.00;0.00;;;;;8.86;64.59;99477.56;5059851;28;46414;-85
2021/12/08 00:41:42;;;;;;;;;2.00;0.50;;;;;8.84;64.29;99477.63;5048549;28;45452;-85
2021/12/08 00:44:08;;;;;;;;;1.00;1.00;;;;;8.83;63.62;99469.84;5062053;28;45220;-84
2021/12/08 00:46:34;;;;;;;;;0.00;0.00;;;;;8.80;63.96;99477.81;5058519;28;45572;-85
2021/12/08 00:48:59;;;;;;;;;0.75;0.75;;;;;8.76;64.36;99491.09;5061463;28;46377;-89
2021/12/08 00:51:25;;;;;;;;;1.00;0.00;;;;;8.76;63.88;99506.81;5060813;28;45217;-88
2021/12/08 00:53:51;;;;;;;;;0.00;0.00;;;;;8.69;63.87;99505.38;5061893;28;45169;-88
2021/12/08 00:56:16;;;;;;;;;0.75;0.50;;;;;8.67;64.04;99507.19;5058863;28;45532;-87
2021/12/08 00:58:42;;;;;;;;;5.00;0.25;;;;;8.68;64.31;99513.28;5061521;28;45242;-88
2021/12/08 01:01:08;;;;;;;;;0.00;0.00;;;;;8.68;64.12;99508.91;5059727;28;45889;-87
2021/12/08 01:03:36;;;;;;;;;1.00;1.00;;;;;8.66;63.72;99516.84;5061126;28;45354;-88
2021/12/08 01:06:04;;;;;;;;;1.25;0.00;;;;;8.65;64.41;99519.53;5053119;28;45503;-87
2021/12/08 01:08:30;;;;;;;;;0.00;0.00;;;;;8.64;63.76;99523.91;5056942;28;45346;-90
2021/12/08 01:11:00;;;;;;;;;1.00;1.00;;;;;8.63;63.62;99516.13;5060206;28;45262;-90
2021/12/08 01:13:27;;;;;;;;;0.00;0.00;;;;;8.63;63.94;99539.69;5061348;28;45350;-89
2021/12/08 01:15:57;;;;;;;;;4.00;0.00;;;;;8.57;63.01;99521.63;5061255;28;45492;-90
2021/12/08 01:18:23;;;;;;;;;0.50;0.25;;;;;8.55;64.05;99514.66;5059153;28;46482;-89
2021/12/08 01:20:51;;;;;;;;;1.00;0.00;;;;;8.57;63.16;99521.63;5061246;28;45287;-82
2021/12/08 01:23:17;;;;;;;;;0.25;0.25;;;;;8.54;63.71;99512.94;5061314;28;45498;-83
2021/12/08 01:25:44;;;;;;;;;0.00;0.00;;;;;8.53;63.53;99498.19;5061181;28;45206;-82
2021/12/08 01:28:10;;;;;;;;;1.00;0.00;;;;;8.52;63.12;99500.88;5058065;28;45433;-83
2021/12/08 01:30:36;;;;;;;;;4.50;0.25;;;;;8.46;62.99;99503.75;5059803;28;45227;-83
2021/12/08 01:33:01;;;;;;;;;0.00;0.00;;;;;8.46;63.24;99499.38;5060126;27;45250;-83
2021/12/08 01:35:27;;;;;;;;;1.00;0.00;;;;;8.47;64.00;99498.44;5046058;28;45791;-83
2021/12/08 01:37:53;;;;;;;;;3.00;0.75;;;;;8.49;63.58;99494.00;5058821;28;45501;-83
2021/12/08 01:40:19;;;;;;;;;0.00;0.00;;;;;8.48;63.28;99496.66;5076366;28;45849;-84
2021/12/08 01:42:49;;;;;;;;;2.50;1.00;;;;;8.48;63.39;99505.38;5060708;28;45282;-84
2021/12/08 01:48:04;;;;;;;;;0.75;0.00;;;;;8.46;63.88;99522.06;5056588;28;45674;-86
2021/12/08 01:50:30;;;;;;;;;3.50;0.50;;;;;8.43;63.53;99505.59;5060629;28;45679;-85
2021/12/08 01:52:55;;;;;;;;;0.25;0.00;;;;;8.42;63.34;99519.59;5060682;28;45266;-85
2021/12/08 01:55:21;;;;;;;;;0.00;0.00;;;;;8.42;63.87;99513.53;5060710;28;45313;-85
2021/12/08 01:57:47;;;;;;;;;0.75;0.75;;;;;8.37;63.33;99516.31;5058500;28;45313;-85
2021/12/08 02:00:36;;;;;;;;;1.00;0.00;;;;;8.36;63.54;99521.63;5058056;28;45228;-85
2021/12/08 02:03:02;;;;;;;;;0.00;0.00;;;;;8.37;63.50;99537.25;5058461;28;45361;-84
2021/12/08 02:05:28;;;;;;;;;0.00;0.00;;;;;8.36;63.18;99539.94;5060520;28;45455;-84
2021/12/08 02:07:54;;;;;;;;;3.75;0.00;;;;;8.37;63.61;99552.97;5059263;28;45601;-85
2021/12/08 02:10:19;;;;;;;;;2.00;1.00;;;;;8.35;63.75;99556.56;5058563;28;45417;-84
2021/12/08 02:12:46;;;;;;;;;0.00;0.00;;;;;8.36;63.91;99556.53;5060739;28;45402;-82
2021/12/08 02:15:14;;;;;;;;;2.00;0.00;;;;;8.34;64.19;99555.75;5060059;28;45574;-86
2021/12/08 02:17:41;;;;;;;;;1.75;0.75;;;;;8.34;63.79;99563.59;5059105;28;45530;-83
2021/12/08 02:20:10;;;;;;;;;0.00;0.00;;;;;8.30;64.02;99578.56;5060102;28;45664;-86
2021/12/08 02:22:35;;;;;;;;;2.00;0.00;;;;;8.25;64.37;99583.16;5060446;28;45286;-86
2021/12/08 02:25:01;;;;;;;;;0.00;0.00;;;;;8.24;63.84;99589.31;5055401;28;47340;-87
2021/12/08 02:27:26;;;;;;;;;0.00;0.00;;;;;8.24;64.23;99593.69;5050426;28;46571;-86
2021/12/08 02:30:01;;;;;;;;;0.75;0.75;;;;;8.23;64.01;99587.59;5043577;28;45502;-87
2021/12/08 02:48:54;;;;;;;;;0.75;0.75;;;;;8.06;64.35;99588.28;5052523;28;45414;-88
2021/12/08 02:51:20;;;;;;;;;1.00;1.00;;;;;8.08;64.11;99589.94;5059450;28;45480;-89
2021/12/08 02:53:47;;;;;;;;;1.50;0.00;;;;;8.07;63.79;99590.00;5058727;28;45336;-91
2021/12/08 02:56:14;;;;;;;;;0.00;0.00;;;;;8.05;63.58;99591.84;5058191;28;46489;-91
2021/12/08 02:58:40;;;;;;;;;0.00;0.00;;;;;8.05;63.96;99599.69;5057609;28;47162;-93
2021/12/08 03:01:08;;;;;;;;;0.75;0.00;;;;;8.04;63.66;99596.22;5046471;28;46164;-94
2021/12/08 03:03:34;;;;;;;;;3.00;0.00;;;;;8.02;63.67;99595.44;5063737;28;45399;-92
2021/12/08 03:05:59;;;;;;;;;1.00;1.00;;;;;7.95;63.26;99586.97;5059717;28;45357;-93
2021/12/08 03:08:25;;;;;;;;;1.00;0.00;;;;;7.94;63.64;99592.28;5066864;28;47398;-91
2021/12/08 03:10:53;;;;;;;;;1.25;1.25;;;;;7.92;63.10;99586.25;5062319;28;45363;-90
2021/12/08 03:13:28;;;;;;;;;0.00;0.00;;;;;7.93;63.57;99588.78;5063157;28;45236;-91
2021/12/08 03:15:53;;;;;;;;;1.00;1.00;;;;;7.95;64.24;99583.53;5063355;28;45184;-91
2021/12/08 03:18:19;;;;;;;;;4.00;1.00;;;;;7.95;63.79;99580.91;5060614;28;48475;-91
2021/12/08 03:20:46;;;;;;;;;2.00;0.00;;;;;7.97;63.94;99574.69;5062247;28;45333;-92
2021/12/08 03:23:16;;;;;;;;;0.50;0.00;;;;;7.98;63.65;99567.66;5050095;28;45162;-93
2021/12/08 03:25:44;;;;;;;;;2.00;0.00;;;;;7.94;63.34;99563.50;5057949;28;47063;-92
2021/12/08 03:28:18;;;;;;;;;2.00;0.00;;;;;7.93;64.12;99559.16;5057291;28;45249;-90
2021/12/08 03:33:22;;;;;;;;;2.00;1.00;;;;;7.94;64.13;99539.94;5055206;28;45307;-90
2021/12/08 03:35:48;;;;;;;;;2.00;0.00;;;;;7.97;63.58;99535.44;5051869;28;46427;-90
2021/12/08 03:38:18;;;;;;;;;2.50;1.00;;;;;7.97;63.98;99534.59;5067287;28;47208;-91
2021/12/08 03:40:46;;;;;;;;;1.50;1.00;;;;;7.96;63.96;99554.66;5060974;28;45252;-91
2021/12/08 03:43:13;;;;;;;;;1.50;1.00;;;;;7.97;64.43;99542.44;5062886;28;45276;-90
2021/12/08 03:45:44;;;;;;;;;2.00;1.25;;;;;7.94;63.96;99539.94;5046550;28;46087;-90
2021/12/08 03:48:14;;;;;;;;;2.00;1.00;;;;;7.93;64.32;99544.31;5062358;28;46150;-84
2021/12/08 03:50:42;;;;;;;;;1.75;0.50;;;;;7.88;63.07;99536.66;5062903;28;45424;-82
2021/12/08 03:53:12;;;;;;;;;0.00;0.00;;;;;7.84;63.78;99545.56;5049142;28;45303;-81
2021/12/08 03:55:39;;;;;;;;;1.00;1.00;;;;;7.87;64.22;99544.56;5059912;28;45623;-81
2021/12/08 03:58:04;;;;;;;;;2.00;2.00;;;;;7.86;64.24;99541.09;5061036;28;46555;-83
2021/12/08 04:00:30;;;;;;;;;0.75;0.25;;;;;7.87;63.80;99545.44;5062389;28;45432;-83
2021/12/08 04:02:57;;;;;;;;;1.00;0.50;;;;;7.90;63.83;99548.84;5062050;28;45433;-83
2021/12/08 04:05:32;;;;;;;;;4.00;1.00;;;;;7.88;64.08;99548.88;5049284;28;45280;-84
2021/12/08 04:08:04;;;;;;;;;1.25;1.25;;;;;7.85;64.02;99549.03;5062354;28;45541;-82
2021/12/08 04:10:30;;;;;;;;;1.25;1.00;;;;;7.82;63.79;99547.38;5077718;28;45347;-83
2021/12/08 04:12:55;;;;;;;;;0.25;0.25;;;;;7.81;63.87;99542.19;5062351;28;45438;-84
2021/12/08 04:15:24;;;;;;;;;2.50;0.00;;;;;7.80;64.22;99543.13;5061086;28;45606;-84
2021/12/08 04:17:53;;;;;;;;;2.50;1.00;;;;;7.78;64.17;99545.78;5061916;28;46377;-84
2021/12/08 04:20:33;;;;;;;;;1.00;1.00;;;;;7.78;64.56;99545.78;5062038;28;45338;-84
2021/12/08 04:23:01;;;;;;;;;0.50;0.50;;;;;7.68;63.65;99542.69;5047940;28;45679;-83
2021/12/08 04:25:35;;;;;;;;;1.50;1.00;;;;;7.65;63.89;99538.44;5061042;28;45282;-83
2021/12/08 04:28:05;;;;;;;;;2.00;1.00;;;;;7.65;63.77;99541.03;5049130;28;46759;-83
2021/12/08 04:30:41;;;;;;;;;1.50;0.00;;;;;7.67;63.91;99548.84;5056537;28;45361;-83
2021/12/08 04:33:07;;;;;;;;;1.75;1.00;;;;;7.64;64.73;99543.72;5055371;28;45416;-83
2021/12/08 04:35:34;;;;;;;;;2.25;1.00;;;;;7.64;64.56;99546.34;5056858;28;45326;-83
2021/12/08 04:38:04;;;;;;;;;1.25;1.00;;;;;7.64;64.20;99544.59;5061660;28;46285;-83
2021/12/08 04:40:45;;;;;;;;;2.00;2.00;;;;;7.65;65.00;99554.13;5061872;28;45703;-83
2021/12/08 04:46:08;;;;;;;;;2.25;0.25;;;;;7.64;64.33;99552.44;5061756;28;45453;-88
2021/12/08 05:02:25;;;;;;;;;3.00;1.00;;;;;7.48;64.21;99580.13;5060893;28;45667;-85
2021/12/08 05:07:49;;;;;;;;;0.75;0.75;;;;;7.43;64.84;99593.38;5061366;28;45333;-84
2021/12/08 05:10:23;;;;;;;;;1.00;1.00;;;;;7.42;65.00;99597.75;5051165;28;45358;-82
2021/12/08 05:12:51;;;;;;;;;1.00;1.00;;;;;7.40;64.59;99604.78;5056397;28;45470;-81
2021/12/08 05:15:16;;;;;;;;;1.00;1.00;;;;;7.42;64.78;99613.44;5047832;28;45425;-82
2021/12/08 05:17:49;;;;;;;;;3.50;1.00;;;;;7.40;64.68;99598.72;5061005;28;45322;-82
2021/12/08 05:20:26;;;;;;;;;2.00;2.00;;;;;7.35;64.83;99596.25;5057923;28;45570;-83
2021/12/08 05:22:57;;;;;;;;;2.00;2.00;;;;;7.35;64.92;99600.63;5060009;28;45398;-83
2021/12/08 05:25:27;;;;;;;;;1.00;1.00;;;;;7.32;64.88;99593.75;5061025;28;45533;-83
2021/12/08 05:27:55;;;;;;;;;1.00;1.00;;;;;7.30;65.04;99604.28;5057327;28;45248;-83
2021/12/08 05:30:40;;;;;;;;;4.00;2.00;;;;;7.31;65.23;99607.72;5043189;28;45431;-83
2021/12/08 05:33:08;;;;;;;;;2.00;1.00;;;;;7.31;65.12;99602.50;5040345;28;45778;-82
2021/12/08 05:35:34;;;;;;;;;3.00;1.00;;;;;7.33;65.04;99608.56;5047992;28;45412;-82
2021/12/08 05:37:59;;;;;;;;;4.75;1.25;;;;;7.32;65.01;99612.06;5059638;28;45354;-84
2021/12/08 05:40:34;;;;;;;;;3.75;1.25;;;;;7.28;64.42;99623.56;5053680;28;46304;-82
2021/12/08 05:43:00;;;;;;;;;3.00;1.00;;;;;7.24;65.15;99620.19;5048306;28;45667;-82
2021/12/08 05:45:27;;;;;;;;;0.75;0.75;;;;;7.27;64.90;99619.22;5054369;28;45495;-82
2021/12/08 05:47:56;;;;;;;;;5.25;2.00;;;;;7.25;65.15;99621.03;5047212;28;45376;-82
2021/12/08 05:50:28;;;;;;;;;2.00;1.50;;;;;7.29;65.39;99628.72;5057806;28;46366;-82
2021/12/08 05:52:55;;;;;;;;;2.00;2.00;;;;;7.28;65.41;99626.16;5048814;28;45173;-83
2021/12/08 05:55:21;;;;;;;;;2.00;1.50;;;;;7.27;64.67;99619.22;5060805;28;45354;-83
2021/12/08 05:57:47;;;;;;;;;3.00;1.00;;;;;7.29;65.30;99622.63;5056893;28;45471;-83
2021/12/08 06:00:21;;;;;;;;;4.00;1.00;;;;;7.29;65.23;99620.88;5059246;28;47710;-92
2021/12/08 06:02:46;;;;;;;;;0.75;0.75;;;;;7.27;65.08;99627.06;5056471;28;45279;-90
2021/12/08 06:05:15;;;;;;;;;2.50;2.00;;;;;7.22;65.05;99616.78;5051235;28;45269;-90
2021/12/08 06:07:45;;;;;;;;;1.75;1.00;;;;;7.23;65.21;99609.78;5040285;28;45476;-92
2021/12/08 06:10:22;;;;;;;;;1.50;1.50;;;;;7.25;65.18;99615.81;5050965;28;45213;-89
2021/12/08 06:12:48;;;;;;;;;2.50;1.50;;;;;7.23;64.53;99612.41;5045336;28;45751;-89
2021/12/08 06:15:14;;;;;;;;;2.50;2.00;;;;;7.25;65.06;99610.59;5051991;28;45342;-89
2021/12/08 06:17:40;;;;;;;;;2.00;1.00;;;;;7.25;64.96;99614.06;5057487;28;45421;-90
2021/12/08 06:20:11;;;;;;;;;2.00;2.00;;;;;7.23;65.32;99599.34;5039865;28;46090;-89
2021/12/08 06:22:36;;;;;;;;;1.00;0.00;;;;;7.22;64.81;99600.25;5045515;28;45204;-89
2021/12/08 06:25:03;;;;;;;;;3.00;1.00;;;;;7.20;64.96;99605.53;5058103;28;45231;-81
2021/12/08 06:27:29;;;;;;;;;3.00;1.00;;;;;7.17;65.27;99597.81;5056123;28;45587;-83
2021/12/08 06:29:55;;;;;;;;;2.00;1.25;;;;;7.18;64.91;99599.50;5052132;28;48268;-82
2021/12/08 06:32:21;;;;;;;;;4.75;2.00;;;;;7.17;64.74;99614.34;5048696;28;45393;-84
2021/12/08 06:34:52;;;;;;;;;3.50;2.00;;;;;7.20;65.27;99621.22;5057408;28;45413;-84
2021/12/08 06:37:22;;;;;;;;;0.00;0.00;;;;;7.20;65.04;99639.50;5040217;28;45434;-84
2021/12/08 06:39:52;;;;;;;;;1.50;1.00;;;;;7.16;64.65;99643.97;5057785;28;45322;-87
2021/12/08 06:42:23;;;;;;;;;3.00;1.50;;;;;7.17;64.97;99645.69;5075447;28;45351;-87
2021/12/08 06:44:51;;;;;;;;;2.75;2.75;;;;;7.13;64.76;99654.56;5059095;27;45382;-87
2021/12/08 06:47:21;;;;;;;;;3.50;1.50;;;;;7.13;65.17;99649.34;5058475;28;45800;-86
2021/12/08 06:49:51;;;;;;;;;3.00;2.75;;;;;7.09;64.95;99643.34;5052563;28;45521;-84
2021/12/08 06:52:22;;;;;;;;;2.75;2.50;;;;;7.11;65.43;99651.16;5059776;28;45657;-85
2021/12/08 06:54:57;;;;;;;;;3.00;3.00;;;;;7.10;65.29;99639.00;5059848;28;45274;-79
2021/12/08 06:57:29;;;;;;;;;1.00;1.00;;;;;7.11;64.92;99645.06;5044286;28;47078;-81
2021/12/08 07:00:03;;;;;;;;;3.00;2.00;;;;;7.10;64.93;99652.06;5040920;28;45425;-80
2021/12/08 07:02:59;;;;;;;;;2.50;1.00;;;;;7.06;64.92;99635.63;5050012;28;45764;-82
2021/12/08 07:05:42;;;;;;;;;3.00;1.00;;;;;7.03;65.03;99629.66;5054318;28;45465;-80
2021/12/08 07:08:09;;;;;;;;;4.00;2.50;;;;;7.06;65.28;99633.00;5043894;28;45771;-79
2021/12/08 07:10:44;;;;;;;;;0.75;0.25;;;;;7.05;65.40;99653.97;5050606;28;46348;-79
2021/12/08 07:13:19;;;;;;;;;4.25;2.00;;;;;7.05;65.37;99636.56;5047576;28;45492;-79
2021/12/08 07:15:55;;;;;;;;;4.50;3.00;;;;;7.02;65.54;99628.81;5056116;28;45441;-79
2021/12/08 07:18:28;;;;;;;;;5.00;2.00;;;;;7.01;64.98;99623.66;5047205;28;45327;-79
2021/12/08 07:21:03;;;;;;;;;3.00;3.00;;;;;7.00;64.84;99616.72;5052826;28;45572;-79
2021/12/08 07:23:36;;;;;;;;;4.50;2.00;;;;;7.00;65.44;99617.56;5040572;28;45497;-79
2021/12/08 07:26:08;;;;;;;;;7.50;1.00;;;;;6.97;65.07;99631.59;5054685;28;45425;-79
2021/12/08 07:28:34;;;;;;;;;3.50;1.25;;;;;6.93;64.90;99639.59;5044958;28;45572;-79
2021/12/08 07:31:11;;;;;;;;;2.00;2.00;;;;;6.88;65.42;99639.75;5054283;28;45493;-78
2021/12/08 07:33:38;;;;;;;;;3.75;2.50;;;;;6.88;65.44;99645.00;5051887;28;45397;-80
2021/12/08 07:36:06;;;;;;;;;4.25;3.00;;;;;6.90;65.72;99653.63;5049067;28;45374;-79
2021/12/08 07:38:33;;;;;;;;;2.00;2.00;;;;;6.88;65.61;99655.44;5059275;28;45505;-79
2021/12/08 07:41:09;;;;;;;;;5.00;2.00;;;;;6.91;65.21;99654.47;5059017;28;45408;-79
2021/12/08 07:43:39;;;;;;;;;8.25;4.75;;;;;6.92;65.27;99659.63;5050257;28;45252;-79
2021/12/08 07:46:12;;;;;;;;;8.25;3.00;;;;;6.91;65.34;99660.56;5057320;28;45460;-79
2021/12/08 07:48:49;;;;;;;;;2.75;2.00;;;;;6.93;65.62;99657.88;5059040;28;45427;-79
2021/12/08 07:51:22;;;;;;;;;5.00;3.50;;;;;6.91;65.74;99652.72;5057600;28;46444;-79
2021/12/08 07:53:48;;;;;;;;;4.50;2.00;;;;;6.91;65.77;99652.72;5052691;28;46382;-79
2021/12/08 07:56:17;;;;;;;;;4.75;3.00;;;;;6.92;65.60;99662.25;5045803;28;45275;-79
2021/12/08 07:58:46;;;;;;;;;4.00;3.50;;;;;6.94;65.44;99670.06;5052033;28;45267;-79
2021/12/08 08:01:27;;;;;;;;;3.75;3.75;;;;;6.91;65.27;99681.47;5056453;28;45248;-79
2021/12/08 08:03:54;;;;;;;;;5.00;2.75;;;;;6.94;65.58;99689.16;5060994;28;45807;-79
2021/12/08 08:06:33;;;;;;;;;1.75;1.75;;;;;6.94;65.62;99683.94;5057729;28;45623;-79
2021/12/08 08:08:59;;;;;;;;;2.75;1.75;;;;;6.96;65.52;99681.31;5048838;28;45422;-79
2021/12/08 08:11:31;;;;;;;;;3.50;2.00;;;;;6.98;65.53;99689.94;5061910;28;45413;-79
2021/12/08 08:13:58;;;;;;;;;2.50;2.50;;;;;6.98;65.33;99682.94;5067398;28;45997;-79
2021/12/08 08:16:29;;;;;;;;;4.00;3.00;;;;;7.01;65.52;99686.34;5050487;28;45470;-79
2021/12/08 08:19:02;;;;;;;;;5.25;3.25;;;;;6.99;65.82;99675.94;5058054;28;45248;-79
2021/12/08 08:21:30;;;;;;;;;4.75;3.00;;;;;6.98;66.08;99677.72;5052321;28;46482;-79
2021/12/08 08:24:00;;;;;;;;;2.75;2.75;;;;;7.00;65.70;99669.81;5052752;28;45215;-79
2021/12/08 08:26:26;;;;;;;;;4.50;3.00;;;;;7.04;65.35;99674.03;5077098;28;45449;-80
2021/12/08 08:28:52;;;;;;;;;9.75;2.00;;;;;7.02;65.63;99668.00;5061880;28;45544;-80
2021/12/08 08:31:25;;;;;;;;;3.00;3.00;;;;;7.00;65.60;99661.13;5061522;28;46293;-80
2021/12/08 08:33:52;;;;;;;;;4.75;2.75;;;;;7.02;65.75;99672.38;5060577;28;45409;-79
2021/12/08 08:36:23;;;;;;;;;1.75;1.00;;;;;7.01;65.84;99668.94;5051237;28;45378;-79
2021/12/08 08:38:58;;;;;;;;;3.50;2.25;;;;;7.02;65.87;99674.97;5060008;28;45494;-79
2021/12/08 08:41:36;;;;;;;;;5.25;2.00;;;;;7.03;65.48;99685.41;5061550;28;46562;-79
2021/12/08 08:44:09;;;;;;;;;4.75;2.00;;;;;7.05;65.91;99693.16;5049785;28;45300;-80
2021/12/08 08:46:38;;;;;;;;;3.50;1.25;;;;;7.07;65.87;99680.91;5061728;28;45401;-79
2021/12/08 08:49:10;;;;;;;;;3.50;1.00;;;;;7.08;65.76;99683.47;5061658;28;45509;-78
2021/12/08 08:51:45;;;;;;;;;3.75;2.00;;;;;7.12;65.42;99683.34;5051559;28;45549;-79
2021/12/08 08:54:20;;;;;;;;;3.50;2.25;;;;;7.14;65.70;99682.38;5045638;28;45818;-79
2021/12/08 08:56:53;;;;;;;;;2.75;1.00;;;;;7.14;65.54;99666.72;5058868;28;45457;-80
2021/12/08 08:59:30;;;;;;;;;1.00;1.00;;;;;7.19;65.32;99679.59;5061427;28;45331;-77
2021/12/08 09:01:57;;;;;;;;;0.00;0.00;;;;;7.20;65.82;99682.19;5046243;28;45591;-79
2021/12/08 09:04:30;;;;;;;;;3.50;1.75;;;;;7.26;65.92;99693.34;5061544;28;45808;-79
2021/12/08 09:07:03;;;;;;;;;3.50;2.75;;;;;7.27;65.22;99687.19;5059887;28;45428;-82
2021/12/08 09:09:34;;;;;;;;;2.75;2.25;;;;;7.29;65.75;99701.03;5059988;28;47074;-79
2021/12/08 09:12:08;;;;;;;;;3.25;2.75;;;;;7.30;65.15;99703.63;5057820;28;47286;-80
2021/12/08 09:14:56;;;;;;;;;4.00;3.00;;;;;7.30;65.16;99702.75;5052717;28;45801;-80
2021/12/08 09:17:29;;;;;;;;;4.75;3.25;;;;;7.28;65.11;99697.59;5040340;28;45361;-81
2021/12/08 09:20:21;;;;;;;;;3.50;1.25;;;;;7.30;65.15;99708.84;5053079;28;47426;-79
2021/12/08 09:22:57;;;;;;;;;2.00;2.00;;;;;7.30;65.54;99716.69;5040360;28;45786;-79
2021/12/08 09:25:38;;;;;;;;;2.75;2.75;;;;;7.33;65.00;99720.97;5053349;28;46053;-79
2021/12/08 09:28:08;;;;;;;;;4.75;2.00;;;;;7.34;65.08;99725.25;5058344;28;45497;-79
2021/12/08 09:30:43;;;;;;;;;2.75;1.25;;;;;7.35;65.36;99726.97;5058001;28;46078;-79
2021/12/08 09:33:13;;;;;;;;;5.25;3.00;;;;;7.36;64.71;99726.06;5058636;28;45672;-79
2021/12/08 09:35:48;;;;;;;;;3.25;1.50;;;;;7.39;64.82;99719.88;5043444;28;45334;-79
2021/12/08 09:38:26;;;;;;;;;4.00;2.00;;;;;7.42;65.26;99720.63;5058344;28;45619;-78
2021/12/08 09:41:01;;;;;;;;;2.00;2.00;;;;;7.41;64.37;99726.75;5058343;28;45707;-78
2021/12/08 09:43:36;;;;;;;;;2.00;2.00;;;;;7.45;64.19;99734.47;5058933;28;46227;-77
2021/12/08 09:46:08;;;;;;;;;5.50;2.00;;;;;7.42;65.19;99738.91;5053077;28;45719;-77
2021/12/08 09:48:37;;;;;;;;;2.50;2.00;;;;;7.47;65.19;99736.13;5056681;28;45343;-77
2021/12/08 09:51:03;;;;;;;;;5.25;3.50;;;;;7.50;64.42;99735.19;5060273;28;45303;-77
2021/12/08 09:53:28;;;;;;;;;5.50;2.00;;;;;7.49;64.94;99728.22;5057504;28;46391;-77
2021/12/08 09:55:55;;;;;;;;;1.00;1.00;;;;;7.50;64.56;99724.72;5048883;28;45427;-77
2021/12/08 09:58:20;;;;;;;;;2.00;1.75;;;;;7.50;64.64;99722.97;5053212;28;45411;-77
2021/12/08 10:00:49;;;;;;;;;3.00;1.50;;;;;7.52;64.22;99725.50;5055643;28;45475;-78
2021/12/08 10:03:16;;;;;;;;;2.25;2.25;;;;;7.56;65.00;99721.00;5041732;28;46423;-78
2021/12/08 10:05:42;;;;;;;;;1.00;1.00;;;;;7.57;64.68;99720.09;5044190;28;45476;-78
2021/12/08 10:08:09;;;;;;;;;6.00;2.50;;;;;7.61;64.46;99709.47;5048523;28;45395;-78
2021/12/08 10:10:36;;;;;;;;;2.25;1.75;;;;;7.67;64.78;99710.16;5056510;28;45445;-78
2021/12/08 10:13:03;;;;;;;;;5.25;2.25;;;;;7.67;64.39;99702.31;5042005;28;47119;-78
2021/12/08 10:15:29;;;;;;;;;1.00;1.00;;;;;7.69;64.13;99700.47;5053985;28;45345;-78
2021/12/08 10:17:56;;;;;;;;;5.00;1.75;;;;;7.67;64.09;99699.69;5059773;28;45398;-78
2021/12/08 10:20:32;;;;;;;;;1.00;1.00;;;;;7.70;64.20;99700.44;5055810;28;45572;-78
2021/12/08 10:23:28;;;;;;;;;1.00;1.00;;;;;7.74;64.53;99695.94;5055402;28;46712;-78
2021/12/08 10:26:05;;;;;;;;;2.00;2.00;;;;;7.73;64.01;99689.84;5053211;28;45372;-78
2021/12/08 10:28:32;;;;;;;;;6.00;3.00;;;;;7.74;64.17;99680.25;5054817;28;45345;-78
2021/12/08 10:31:05;;;;;;;;;2.00;1.75;;;;;7.73;64.30;99684.59;5048104;28;45425;-78
2021/12/08 10:33:35;;;;;;;;;2.75;1.50;;;;;7.75;64.49;99701.09;5058406;27;45433;-78
2021/12/08 10:36:05;;;;;;;;;3.00;2.00;;;;;7.78;63.78;99707.97;5068083;28;45812;-78
2021/12/08 10:38:39;;;;;;;;;4.00;2.00;;;;;7.82;63.79;99719.19;5060309;28;45218;-78
2021/12/08 10:41:07;;;;;;;;;2.00;2.00;;;;;7.86;64.34;99716.41;5052063;28;47364;-78
2021/12/08 10:43:34;;;;;;;;;6.50;3.50;;;;;7.90;63.84;99711.06;5050915;28;47653;-78
2021/12/08 10:46:06;;;;;;;;;1.25;1.00;;;;;7.92;63.14;99709.22;5075472;28;45393;-78
2021/12/08 10:48:39;;;;;;;;;4.25;3.50;;;;;7.96;63.48;99718.66;5059859;28;45342;-78
2021/12/08 10:54:30;;;;;;;;;2.00;2.00;;;;;8.05;63.63;99714.84;5054055;28;45424;-78
2021/12/08 10:56:58;;;;;;;;;3.50;2.00;;;;;8.10;63.32;99718.13;5049666;28;45302;-78
2021/12/08 10:59:47;;;;;;;;;2.00;2.00;;;;;8.14;63.24;99705.78;5048861;28;45341;-79
2021/12/08 11:02:35;;;;;;;;;2.00;2.00;;;;;8.24;63.93;99714.97;5046002;28;45516;-79
2021/12/08 11:05:01;;;;;;;;;3.75;2.00;;;;;8.28;63.71;99718.31;5059400;28;45426;-79
2021/12/08 11:07:26;;;;;;;;;3.25;3.00;;;;;8.31;64.00;99721.66;5058574;28;45244;-79
2021/12/08 11:09:52;;;;;;;;;1.00;1.00;;;;;8.37;63.55;99722.34;5048951;28;45458;-79
2021/12/08 11:12:17;;;;;;;;;4.00;2.00;;;;;8.44;62.68;99727.25;5053669;28;45574;-79
2021/12/08 11:14:48;;;;;;;;;7.00;2.25;;;;;8.48;63.01;99722.75;5059407;28;46364;-79
2021/12/08 11:17:27;;;;;;;;;5.00;1.75;;;;;8.50;62.60;99714.81;5051181;28;45218;-79
2021/12/08 11:20:17;;;;;;;;;1.75;1.75;;;;;8.55;62.22;99713.72;5048863;28;45275;-79
2021/12/08 11:22:46;;;;;;;;;4.00;1.75;;;;;8.55;62.29;99713.72;5057699;28;45433;-80
2021/12/08 11:25:30;;;;;;;;;2.50;2.00;;;;;8.59;61.86;99716.25;5057376;28;46242;-80
2021/12/08 11:27:59;;;;;;;;;0.50;0.50;;;;;8.59;62.09;99711.00;5059167;28;45451;-79
2021/12/08 11:30:28;;;;;;;;;1.00;1.00;;;;;8.61;62.41;99717.91;5051991;28;45405;-79
2021/12/08 11:33:16;;;;;;;;;0.75;0.75;;;;;8.63;62.56;99713.44;5045486;28;45471;-80
2021/12/08 11:35:42;;;;;;;;;3.50;1.00;;;;;8.67;62.15;99711.53;5050986;28;46059;-79
2021/12/08 11:38:07;;;;;;;;;1.00;1.00;;;;;8.69;62.00;99707.09;5049718;28;45227;-79
2021/12/08 11:40:34;;;;;;;;;3.75;1.25;;;;;8.69;61.42;99709.72;5058795;28;45417;-79
2021/12/08 11:43:00;;;;;;;;;1.25;1.00;;;;;8.68;61.95;99697.53;5047004;28;45726;-79
2021/12/08 11:45:25;;;;;;;;;2.00;1.50;;;;;8.74;62.17;99718.22;5048781;28;45456;-79
2021/12/08 11:47:51;;;;;;;;;4.50;2.75;;;;;8.78;61.59;99719.81;5062173;28;45482;-79
2021/12/08 11:50:22;;;;;;;;;2.00;1.25;;;;;8.78;61.71;99713.72;5062878;28;45329;-80
2021/12/08 11:52:53;;;;;;;;;4.75;1.00;;;;;8.80;61.66;99724.97;5054881;28;45206;-80
2021/12/08 11:55:20;;;;;;;;;1.75;1.25;;;;;8.82;61.56;99714.44;5057562;28;48529;-80
2021/12/08 11:57:57;;;;;;;;;2.25;1.50;;;;;8.85;61.53;99719.53;5062473;28;45246;-79
2021/12/08 12:00:32;;;;;;;;;1.25;1.25;;;;;8.85;61.71;99715.16;5055869;28;45243;-79
2021/12/08 12:03:02;;;;;;;;;1.50;1.00;;;;;8.90;62.13;99717.59;5055951;28;45476;-79
2021/12/08 12:05:33;;;;;;;;;2.25;1.00;;;;;8.93;61.41;99722.69;5060565;28;45460;-79
2021/12/08 12:08:00;;;;;;;;;1.50;1.00;;;;;8.96;61.00;99717.31;5048448;28;45528;-79
2021/12/08 12:10:30;;;;;;;;;3.00;2.25;;;;;8.96;60.62;99726.97;5062434;28;45469;-79
2021/12/08 12:12:56;;;;;;;;;4.50;2.00;;;;;8.96;61.02;99717.31;5062004;28;45204;-79
2021/12/08 12:15:23;;;;;;;;;2.00;1.50;;;;;9.00;61.26;99721.53;5061702;28;45586;-79
2021/12/08 12:17:49;;;;;;;;;0.75;0.75;;;;;9.01;60.85;99730.25;5062108;28;45824;-79
2021/12/08 12:20:25;;;;;;;;;3.50;2.50;;;;;9.05;60.70;99730.94;5062212;28;45418;-80
2021/12/08 12:23:12;;;;;;;;;2.00;0.75;;;;;9.05;60.73;99733.56;5062180;28;45469;-80
2021/12/08 12:25:54;;;;;;;;;0.00;0.00;;;;;9.02;60.37;99734.56;5062066;28;45420;-80
2021/12/08 12:28:50;;;;;;;;;2.00;0.75;;;;;9.03;60.66;99745.91;5054760;28;45311;-80
2021/12/08 12:31:56;;;;;;;;;1.75;1.75;;;;;9.03;60.96;99748.50;5043258;28;45455;-79
2021/12/08 12:34:23;;;;;;;;;3.75;2.25;;;;;9.05;60.75;99751.91;5039436;28;45416;-79
2021/12/08 12:36:48;;;;;;;;;1.75;1.00;;;;;9.04;59.97;99751.06;5036829;28;46220;-79
2021/12/08 12:39:18;;;;;;;;;3.75;1.50;;;;;9.01;60.72;99761.69;5044380;28;45270;-79
2021/12/08 12:42:02;;;;;;;;;2.25;1.25;;;;;9.03;61.05;99775.59;5061436;28;45386;-79
2021/12/08 12:44:30;;;;;;;;;2.00;2.00;;;;;9.07;61.18;99781.53;5062032;28;45213;-79